createdAt,value
2018-12-27T00:00:29.599Z,93.80
2018-12-27T00:03:10.442Z,93.80
2018-12-27T00:05:51.682Z,93.80
2018-12-27T00:08:33.122Z,93.90
2018-12-27T00:11:14.546Z,93.80
2018-12-27T00:13:55.518Z,93.80
2018-12-27T00:16:25.053Z,93.60
2018-12-27T00:19:13.619Z,94.00
2018-12-27T00:21:54.875Z,93.90
2018-12-27T00:24:35.939Z,94.30
2018-12-27T00:27:17.206Z,93.90
2018-12-27T00:29:58.781Z,93.80
2018-12-27T00:32:39.587Z,93.80
2018-12-27T00:38:06.344Z,94.00
2018-12-27T00:40:47.907Z,94.00
2018-12-27T00:43:29.648Z,94.00
2018-12-27T00:46:11.174Z,94.00
2018-12-27T00:48:52.063Z,94.10
2018-12-27T00:51:33.157Z,94.10
2018-12-27T00:54:14.208Z,94.10
2018-12-27T00:56:55.759Z,94.10
2018-12-27T00:59:37.051Z,94.10
2018-12-27T01:02:18.652Z,94.10
2018-12-27T01:05:00.244Z,94.00
2018-12-27T01:07:41.059Z,94.00
2018-12-27T01:10:22.667Z,94.00
2018-12-27T01:13:04.358Z,94.00
2018-12-27T01:15:45.873Z,94.00
2018-12-27T01:18:27.179Z,94.10
2018-12-27T01:21:08.737Z,94.10
2018-12-27T01:23:49.583Z,94.00
2018-12-27T01:26:19.227Z,94.20
2018-12-27T01:29:07.850Z,94.10
2018-12-27T01:31:56.451Z,94.10
2018-12-27T01:34:37.971Z,94.10
2018-12-27T01:37:19.501Z,94.10
2018-12-27T01:40:03.118Z,94.10
2018-12-27T01:42:45.218Z,94.10
2018-12-27T01:45:26.878Z,94.10
2018-12-27T01:48:07.724Z,94.20
2018-12-27T01:50:49.328Z,94.20
2018-12-27T01:53:31.952Z,94.20
2018-12-27T01:58:47.732Z,94.30
2018-12-27T02:01:36.319Z,94.20
2018-12-27T02:04:17.740Z,94.10
2018-12-27T02:06:58.661Z,94.20
2018-12-27T02:09:40.239Z,94.20
2018-12-27T02:12:20.982Z,94.20
2018-12-27T02:15:02.138Z,94.30
2018-12-27T02:17:43.619Z,94.30
2018-12-27T02:20:25.180Z,94.30
2018-12-27T02:23:06.607Z,94.30
2018-12-27T02:25:47.513Z,94.30
2018-12-27T02:28:28.667Z,94.30
2018-12-27T02:31:10.373Z,94.30
2018-12-27T02:33:51.946Z,94.30
2018-12-27T02:36:32.747Z,94.30
2018-12-27T02:42:26.596Z,94.90
2018-12-27T02:45:07.908Z,94.40
2018-12-27T02:47:49.330Z,94.50
2018-12-27T02:50:30.069Z,94.50
2018-12-27T02:53:11.270Z,94.50
2018-12-27T02:55:52.426Z,94.50
2018-12-27T02:58:33.138Z,94.60
2018-12-27T03:01:14.157Z,94.60
2018-12-27T03:03:54.934Z,94.80
2018-12-27T03:06:36.407Z,95.10
2018-12-27T03:09:18.114Z,95.20
2018-12-27T03:11:58.903Z,95.00
2018-12-27T03:14:40.450Z,94.90
2018-12-27T03:17:21.287Z,95.00
2018-12-27T03:20:02.059Z,94.90
2018-12-27T03:22:43.655Z,94.60
2018-12-27T03:25:25.199Z,94.60
2018-12-27T03:28:06.272Z,94.60
2018-12-27T03:30:47.406Z,94.60
2018-12-27T03:33:28.916Z,94.70
2018-12-27T03:35:58.503Z,94.80
2018-12-27T03:38:47.144Z,94.70
2018-12-27T03:41:35.723Z,94.60
2018-12-27T03:44:17.696Z,94.70
2018-12-27T03:46:58.518Z,94.80
2018-12-27T03:49:40.077Z,94.90
2018-12-27T03:52:21.466Z,94.90
2018-12-27T03:55:02.907Z,94.90
2018-12-27T03:57:44.351Z,95.00
2018-12-27T04:00:25.134Z,95.00
2018-12-27T04:03:06.560Z,95.00
2018-12-27T04:05:47.338Z,95.10
2018-12-27T04:08:28.687Z,95.30
2018-12-27T04:11:10.663Z,95.30
2018-12-27T04:13:52.165Z,95.30
2018-12-27T04:16:33.567Z,95.30
2018-12-27T04:19:14.485Z,95.10
2018-12-27T04:21:55.713Z,95.10
2018-12-27T04:24:37.230Z,95.20
2018-12-27T04:27:18.051Z,95.20
2018-12-27T04:29:59.349Z,95.20
2018-12-27T04:32:40.025Z,95.20
2018-12-27T04:35:22.825Z,95.30
2018-12-27T04:38:03.857Z,95.10
2018-12-27T04:40:45.184Z,95.10
2018-12-27T04:43:26.627Z,95.00
2018-12-27T04:46:07.559Z,95.00
2018-12-27T04:48:48.831Z,94.80
2018-12-27T04:51:30.332Z,94.80
2018-12-27T04:54:11.763Z,94.90
2018-12-27T04:56:52.596Z,94.70
2018-12-27T04:59:33.616Z,94.50
2018-12-27T05:02:14.932Z,94.30
2018-12-27T05:04:56.007Z,94.30
2018-12-27T05:07:37.462Z,94.40
2018-12-27T05:10:19.090Z,94.40
2018-12-27T05:13:00.565Z,94.30
2018-12-27T05:15:42.092Z,94.00
2018-12-27T05:18:25.751Z,94.00
2018-12-27T05:21:07.556Z,94.00
2018-12-27T05:23:48.884Z,94.10
2018-12-27T05:26:30.426Z,93.90
2018-12-27T05:29:11.424Z,94.00
2018-12-27T05:31:54.147Z,93.90
2018-12-27T05:34:35.667Z,94.00
2018-12-27T05:37:18.418Z,93.80
2018-12-27T05:39:59.717Z,93.80
2018-12-27T05:42:40.704Z,93.80
2018-12-27T05:45:21.456Z,93.80
2018-12-27T05:48:03.015Z,93.80
2018-12-27T05:50:44.233Z,93.90
2018-12-27T05:53:25.314Z,93.90
2018-12-27T05:56:06.641Z,93.80
2018-12-27T05:58:48.287Z,93.90
2018-12-27T06:01:29.578Z,94.10
2018-12-27T06:04:10.467Z,94.00
2018-12-27T06:06:51.671Z,94.10
2018-12-27T06:09:33.178Z,94.30
2018-12-27T06:12:16.009Z,94.20
2018-12-27T06:14:56.989Z,94.20
2018-12-27T06:17:37.958Z,93.80
2018-12-27T06:20:19.492Z,93.50
2018-12-27T06:23:01.060Z,93.50
2018-12-27T06:25:42.146Z,93.50
2018-12-27T06:28:23.474Z,93.50
2018-12-27T06:31:05.136Z,93.50
2018-12-27T06:33:46.030Z,93.70
2018-12-27T06:36:27.307Z,93.70
2018-12-27T06:39:08.385Z,93.70
2018-12-27T06:41:49.413Z,93.80
2018-12-27T06:44:31.106Z,93.80
2018-12-27T06:47:12.017Z,93.80
2018-12-27T06:49:53.052Z,93.80
2018-12-27T06:52:34.075Z,93.70
2018-12-27T06:55:14.905Z,93.60
2018-12-27T06:57:56.225Z,93.60
2018-12-27T07:00:38.103Z,93.80
2018-12-27T07:03:19.350Z,93.70
2018-12-27T07:06:00.247Z,93.80
2018-12-27T07:08:41.408Z,93.70
2018-12-27T07:11:22.760Z,93.70
2018-12-27T07:14:04.478Z,93.50
2018-12-27T07:16:45.251Z,93.50
2018-12-27T07:19:26.106Z,93.50
2018-12-27T07:22:07.591Z,93.30
2018-12-27T07:24:49.136Z,93.30
2018-12-27T07:27:29.835Z,93.30
2018-12-27T07:30:11.039Z,93.50
2018-12-27T07:32:52.185Z,93.50
2018-12-27T07:35:33.215Z,93.10
2018-12-27T07:38:14.787Z,92.90
2018-12-27T07:40:57.236Z,93.00
2018-12-27T07:43:39.135Z,93.10
2018-12-27T07:46:20.354Z,93.40
2018-12-27T07:49:00.023Z,93.10
2018-12-27T07:51:29.554Z,92.80
2018-12-27T07:54:18.108Z,92.90
2018-12-27T07:56:59.269Z,92.80
2018-12-27T07:59:40.707Z,92.70
2018-12-27T08:02:21.855Z,93.00
2018-12-27T08:07:48.799Z,92.60
2018-12-27T08:10:30.165Z,92.30
2018-12-27T08:13:11.335Z,92.10
2018-12-27T08:15:52.730Z,91.90
2018-12-27T08:18:33.459Z,91.90
2018-12-27T08:21:14.538Z,91.80
2018-12-27T08:23:55.583Z,91.60
2018-12-27T08:26:37.220Z,91.60
2018-12-27T08:29:18.449Z,91.70
2018-12-27T08:31:59.355Z,91.60
2018-12-27T08:34:40.753Z,91.40
2018-12-27T08:37:22.135Z,91.30
2018-12-27T08:40:05.845Z,91.30
2018-12-27T08:42:47.511Z,91.30
2018-12-27T08:45:29.134Z,91.40
2018-12-27T08:48:09.910Z,91.10
2018-12-27T08:50:51.169Z,91.00
2018-12-27T08:53:20.648Z,90.80
2018-12-27T08:56:09.218Z,90.80
2018-12-27T08:58:57.791Z,90.70
2018-12-27T09:01:40.798Z,90.60
2018-12-27T09:04:21.617Z,90.40
2018-12-27T09:07:02.418Z,90.20
2018-12-27T09:09:43.186Z,90.00
2018-12-27T09:12:26.003Z,89.60
2018-12-27T09:15:06.798Z,89.60
2018-12-27T09:17:48.005Z,89.90
2018-12-27T09:20:29.589Z,89.40
2018-12-27T09:23:11.904Z,90.00
2018-12-27T09:25:53.223Z,89.90
2018-12-27T09:28:34.746Z,89.60
2018-12-27T09:31:14.590Z,89.20
2018-12-27T09:33:56.426Z,89.20
2018-12-27T09:36:37.527Z,88.50
2018-12-27T09:39:20.006Z,88.00
2018-12-27T09:42:01.385Z,87.90
2018-12-27T09:44:42.886Z,87.60
2018-12-27T09:47:25.050Z,88.20
2018-12-27T09:50:06.409Z,88.00
2018-12-27T09:52:47.828Z,87.50
2018-12-27T09:55:29.367Z,87.60
2018-12-27T09:58:10.925Z,86.80
2018-12-27T10:00:52.341Z,86.80
2018-12-27T10:03:34.308Z,86.50
2018-12-27T10:06:15.859Z,85.60
2018-12-27T10:11:41.222Z,85.00
2018-12-27T10:14:22.906Z,85.00
2018-12-27T10:19:55.062Z,85.10
2018-12-27T10:22:35.895Z,84.60
2018-12-27T10:25:18.283Z,84.50
2018-12-27T10:27:59.858Z,85.00
2018-12-27T10:30:41.526Z,85.00
2018-12-27T10:33:22.760Z,85.00
2018-12-27T10:36:03.700Z,85.10
2018-12-27T10:41:27.440Z,83.80
2018-12-27T10:44:10.752Z,83.50
2018-12-27T10:46:54.724Z,83.90
2018-12-27T10:49:36.113Z,83.30
2018-12-27T10:52:18.046Z,82.70
2018-12-27T10:54:59.067Z,82.70
2018-12-27T10:57:40.479Z,82.50
2018-12-27T11:00:21.481Z,81.60
2018-12-27T11:05:48.847Z,81.40
2018-12-27T11:08:32.483Z,80.90
2018-12-27T11:11:13.840Z,80.10
2018-12-27T11:13:55.054Z,79.30
2018-12-27T11:16:36.420Z,78.40
2018-12-27T11:19:17.982Z,78.90
2018-12-27T11:21:59.432Z,79.60
2018-12-27T11:24:40.950Z,79.80
2018-12-27T11:27:23.071Z,79.90
2018-12-27T11:30:07.827Z,80.10
2018-12-27T11:32:51.280Z,80.80
2018-12-27T11:35:32.913Z,80.60
2018-12-27T11:41:04.989Z,81.30
2018-12-27T11:43:46.430Z,81.60
2018-12-27T11:46:27.954Z,80.90
2018-12-27T11:49:09.152Z,81.10
2018-12-27T11:51:50.839Z,81.10
2018-12-27T12:00:00.973Z,82.30
2018-12-27T12:02:31.295Z,82.30
2018-12-27T12:05:20.623Z,82.90
2018-12-27T12:10:47.192Z,83.30
2018-12-27T12:16:12.002Z,82.50
2018-12-27T12:18:53.094Z,82.70
2018-12-27T12:24:19.000Z,82.40
2018-12-27T12:27:00.475Z,82.20
2018-12-27T12:29:42.402Z,83.40
2018-12-27T12:32:24.235Z,82.20
2018-12-27T12:35:05.864Z,81.80
2018-12-27T12:37:50.327Z,80.90
2018-12-27T12:40:31.787Z,81.10
2018-12-27T12:43:20.423Z,80.70
2018-12-27T12:46:09.020Z,80.90
2018-12-27T12:48:50.435Z,81.10
2018-12-27T12:51:20.004Z,81.60
2018-12-27T12:54:08.565Z,80.90
2018-12-27T12:56:57.502Z,81.80
2018-12-27T12:59:38.696Z,82.60
2018-12-27T13:02:20.032Z,82.60
2018-12-27T13:05:01.948Z,83.60
2018-12-27T13:07:43.186Z,81.60
2018-12-27T13:10:24.663Z,81.60
2018-12-27T13:13:05.684Z,81.50
2018-12-27T13:15:47.072Z,81.10
2018-12-27T13:18:28.298Z,80.80
2018-12-27T13:23:56.148Z,81.30
2018-12-27T13:29:15.760Z,82.10
2018-12-27T13:31:57.353Z,83.50
2018-12-27T13:34:38.886Z,83.70
2018-12-27T13:37:19.630Z,84.20
2018-12-27T13:40:01.288Z,83.90
2018-12-27T13:42:42.773Z,83.20
2018-12-27T13:45:24.190Z,83.30
2018-12-27T13:50:48.712Z,82.80
2018-12-27T13:53:30.619Z,82.60
2018-12-27T13:56:11.920Z,81.80
2018-12-27T13:58:53.127Z,82.00
2018-12-27T14:01:35.946Z,82.00
2018-12-27T14:04:05.520Z,82.50
2018-12-27T14:06:54.462Z,81.80
2018-12-27T14:09:35.898Z,81.90
2018-12-27T14:12:17.535Z,82.20
2018-12-27T14:14:59.030Z,82.70
2018-12-27T14:17:40.105Z,82.30
2018-12-27T14:20:21.537Z,82.80
2018-12-27T14:23:03.375Z,83.30
2018-12-27T14:25:44.601Z,82.60
2018-12-27T14:28:26.119Z,83.10
2018-12-27T14:31:07.686Z,83.50
2018-12-27T14:33:48.986Z,83.90
2018-12-27T14:36:32.235Z,84.20
2018-12-27T14:39:13.947Z,83.00
2018-12-27T14:41:55.567Z,83.10
2018-12-27T14:44:36.648Z,83.90
2018-12-27T14:47:18.947Z,83.30
2018-12-27T14:50:00.379Z,83.20
2018-12-27T14:55:23.814Z,83.70
2018-12-27T14:58:06.226Z,84.40
2018-12-27T15:00:48.220Z,84.90
2018-12-27T15:03:29.864Z,85.60
2018-12-27T15:06:15.463Z,85.40
2018-12-27T15:08:57.087Z,86.20
2018-12-27T15:11:38.210Z,86.00
2018-12-27T15:14:19.653Z,86.90
2018-12-27T15:17:01.184Z,87.60
2018-12-27T15:19:42.733Z,88.20
2018-12-27T15:22:24.020Z,88.10
2018-12-27T15:25:05.593Z,87.50
2018-12-27T15:27:47.359Z,88.00
2018-12-27T15:30:29.525Z,88.00
2018-12-27T15:35:53.701Z,89.10
2018-12-27T15:38:34.449Z,88.80
2018-12-27T15:41:15.829Z,88.50
2018-12-27T15:43:59.345Z,88.20
2018-12-27T15:46:40.862Z,88.40
2018-12-27T15:49:23.269Z,88.40
2018-12-27T15:52:07.560Z,88.90
2018-12-27T15:54:49.105Z,89.40
2018-12-27T15:57:30.391Z,89.40
2018-12-27T16:00:11.953Z,89.10
2018-12-27T16:02:53.465Z,89.70
2018-12-27T16:05:34.957Z,90.10
2018-12-27T16:08:16.543Z,90.40
2018-12-27T16:10:58.136Z,90.60
2018-12-27T16:13:39.201Z,90.70
2018-12-27T16:16:20.701Z,90.90
2018-12-27T16:19:02.818Z,90.90
2018-12-27T16:21:44.255Z,90.80
2018-12-27T16:24:25.656Z,90.80
2018-12-27T16:27:08.407Z,90.70
2018-12-27T16:29:49.801Z,90.50
2018-12-27T16:32:31.113Z,90.50
2018-12-27T16:35:13.345Z,90.50
2018-12-27T16:38:03.862Z,90.50
2018-12-27T16:40:45.273Z,90.50
2018-12-27T16:43:26.331Z,90.40
2018-12-27T16:46:08.884Z,90.50
2018-12-27T16:48:50.456Z,90.60
2018-12-27T16:51:32.145Z,90.60
2018-12-27T16:54:13.262Z,90.60
2018-12-27T16:56:54.888Z,90.80
2018-12-27T16:59:36.464Z,90.90
2018-12-27T17:02:18.161Z,91.00
2018-12-27T17:04:59.329Z,90.90
2018-12-27T17:07:40.946Z,90.90
2018-12-27T17:10:21.725Z,90.90
2018-12-27T17:12:51.246Z,90.90
2018-12-27T17:15:39.759Z,91.00
2018-12-27T17:18:21.014Z,91.00
2018-12-27T17:21:02.463Z,91.00
2018-12-27T17:23:44.178Z,90.90
2018-12-27T17:26:25.084Z,91.00
2018-12-27T17:29:05.842Z,91.00
2018-12-27T17:31:47.515Z,91.20
2018-12-27T17:34:28.833Z,91.50
2018-12-27T17:39:53.439Z,91.90
2018-12-27T17:42:34.614Z,91.80
2018-12-27T17:45:15.431Z,91.50
2018-12-27T17:47:57.079Z,91.40
2018-12-27T17:50:41.295Z,91.60
2018-12-27T17:53:23.098Z,91.80
2018-12-27T17:56:04.587Z,92.00
2018-12-27T17:58:46.082Z,91.80
2018-12-27T18:01:27.204Z,91.90
2018-12-27T18:04:08.649Z,92.10
2018-12-27T18:06:51.192Z,91.80
2018-12-27T18:12:15.053Z,91.50
2018-12-27T18:14:59.387Z,91.60
2018-12-27T18:17:28.977Z,91.70
2018-12-27T18:20:17.516Z,91.60
2018-12-27T18:22:58.867Z,91.70
2018-12-27T18:25:41.673Z,91.90
2018-12-27T18:28:22.710Z,91.90
2018-12-27T18:31:03.857Z,91.90
2018-12-27T18:33:44.667Z,91.70
2018-12-27T18:36:26.234Z,91.80
2018-12-27T18:41:51.814Z,92.00
2018-12-27T18:47:16.979Z,92.00
2018-12-27T18:49:58.224Z,91.90
2018-12-27T18:52:39.939Z,92.10
2018-12-27T18:55:22.333Z,92.20
2018-12-27T18:58:03.838Z,92.40
2018-12-27T19:00:45.527Z,92.50
2018-12-27T19:03:28.043Z,92.60
2018-12-27T19:06:09.717Z,92.70
2018-12-27T19:08:50.574Z,92.40
2018-12-27T19:11:32.498Z,92.30
2018-12-27T19:14:02.270Z,92.30
2018-12-27T19:16:51.489Z,92.30
2018-12-27T19:19:32.157Z,92.20
2018-12-27T19:22:12.998Z,92.40
2018-12-27T19:24:42.951Z,92.40
2018-12-27T19:27:32.758Z,92.50
2018-12-27T19:30:15.423Z,92.60
2018-12-27T19:32:56.558Z,92.60
2018-12-27T19:35:38.237Z,92.80
2018-12-27T19:38:19.846Z,92.70
2018-12-27T19:41:01.543Z,92.80
2018-12-27T19:43:43.133Z,92.80
2018-12-27T19:46:25.581Z,93.00
2018-12-27T19:49:07.078Z,93.10
2018-12-27T19:51:48.634Z,93.40
2018-12-27T19:54:32.024Z,93.20
2018-12-27T19:59:50.650Z,93.20
2018-12-27T20:02:39.171Z,93.30
2018-12-27T20:05:20.775Z,93.30
2018-12-27T20:08:02.009Z,93.20
2018-12-27T20:10:44.382Z,93.20
2018-12-27T20:13:26.007Z,93.20
2018-12-27T20:16:08.036Z,93.20
2018-12-27T20:18:49.289Z,93.20
2018-12-27T20:21:30.535Z,93.30
2018-12-27T20:24:12.063Z,93.70
2018-12-27T20:26:53.596Z,93.70
2018-12-27T20:32:13.514Z,93.80
2018-12-27T20:34:43.396Z,94.00
2018-12-27T20:37:31.905Z,93.90
2018-12-27T20:40:20.821Z,93.80
2018-12-27T20:43:01.945Z,93.90
2018-12-27T20:45:44.105Z,94.00
2018-12-27T20:48:25.062Z,93.90
2018-12-27T20:51:05.952Z,93.80
2018-12-27T20:53:48.099Z,94.00
2018-12-27T20:56:29.534Z,94.00
2018-12-27T20:59:11.649Z,93.80
2018-12-27T21:01:52.979Z,94.00
2018-12-27T21:04:34.455Z,94.20
2018-12-27T21:09:59.099Z,94.60
2018-12-27T21:12:38.743Z,94.40
2018-12-27T21:15:20.160Z,94.50
2018-12-27T21:18:00.832Z,94.30
2018-12-27T21:20:42.415Z,94.30
2018-12-27T21:23:23.894Z,94.50
2018-12-27T21:26:05.407Z,94.50
2018-12-27T21:28:46.097Z,94.60
2018-12-27T21:34:13.708Z,94.50
2018-12-27T21:39:39.281Z,94.70
2018-12-27T21:42:19.996Z,94.70
2018-12-27T21:45:00.735Z,94.70
2018-12-27T21:47:30.090Z,95.00
2018-12-27T21:53:14.286Z,94.80
2018-12-27T21:56:02.749Z,94.90
2018-12-27T21:58:43.993Z,94.80
2018-12-27T22:01:25.627Z,94.90
2018-12-27T22:04:06.951Z,95.30
2018-12-27T22:06:48.051Z,95.50
2018-12-27T22:09:29.239Z,95.40
2018-12-27T22:12:10.669Z,95.20
2018-12-27T22:14:51.596Z,95.00
2018-12-27T22:17:33.187Z,95.10
2018-12-27T22:20:17.628Z,95.10
2018-12-27T22:22:58.865Z,95.10
2018-12-27T22:25:40.504Z,95.20
2018-12-27T22:28:21.671Z,95.20
2018-12-27T22:31:02.631Z,95.10
2018-12-27T22:33:44.015Z,94.90
2018-12-27T22:36:25.192Z,94.80
2018-12-27T22:39:07.938Z,95.00
2018-12-27T22:41:49.481Z,95.00
2018-12-27T22:44:30.187Z,95.30
2018-12-27T22:46:59.544Z,95.40
2018-12-27T22:49:47.932Z,95.50
2018-12-27T22:52:37.068Z,95.50
2018-12-27T22:55:17.955Z,95.60
2018-12-27T22:57:58.927Z,95.80
2018-12-27T23:00:40.260Z,95.60
2018-12-27T23:03:21.490Z,95.70
2018-12-27T23:06:02.343Z,96.00
2018-12-27T23:08:44.117Z,96.10
2018-12-27T23:11:25.775Z,96.20
2018-12-27T23:14:14.194Z,96.20
2018-12-27T23:17:02.674Z,96.30
2018-12-27T23:19:43.988Z,96.40
2018-12-27T23:22:25.087Z,96.10
2018-12-27T23:25:06.340Z,96.10
2018-12-27T23:27:47.826Z,96.20
2018-12-27T23:30:32.048Z,96.40
2018-12-27T23:33:13.395Z,96.30
2018-12-27T23:35:54.119Z,96.40
2018-12-27T23:41:20.767Z,95.80
2018-12-27T23:44:04.041Z,96.10
2018-12-27T23:46:45.351Z,96.10
2018-12-27T23:49:26.635Z,96.10
2018-12-27T23:52:07.302Z,95.80
2018-12-27T23:54:48.872Z,95.80
2018-12-27T23:57:30.064Z,95.80
